sensor_id;sensor_type;location;lat;lon;timestamp;P1;durP1;ratioP1;P2;durP2;ratioP2
19554;SDS011;9924;50.828;6.440;2022-12-18T00:02:22;27.23;;;12.90;;
19554;SDS011;9924;50.828;6.440;2022-12-18T00:05:07;32.10;;;13.67;;
19554;SDS011;9924;50.828;6.440;2022-12-18T00:07:52;31.40;;;13.20;;
19554;SDS011;9924;50.828;6.440;2022-12-18T00:10:36;30.23;;;13.37;;
19554;SDS011;9924;50.828;6.440;2022-12-18T00:13:20;29.57;;;13.00;;
19554;SDS011;9924;50.828;6.440;2022-12-18T00:16:06;28.30;;;12.83;;
19554;SDS011;9924;50.828;6.440;2022-12-18T00:18:53;24.23;;;11.23;;
19554;SDS011;9924;50.828;6.440;2022-12-18T00:21:39;27.80;;;12.40;;
19554;SDS011;9924;50.828;6.440;2022-12-18T00:24:25;25.50;;;11.33;;
19554;SDS011;9924;50.828;6.440;2022-12-18T00:27:09;24.43;;;10.90;;
19554;SDS011;9924;50.828;6.440;2022-12-18T00:29:53;26.17;;;12.10;;
19554;SDS011;9924;50.828;6.440;2022-12-18T00:32:38;23.27;;;12.17;;
19554;SDS011;9924;50.828;6.440;2022-12-18T00:35:22;23.73;;;11.57;;
19554;SDS011;9924;50.828;6.440;2022-12-18T00:38:07;24.27;;;11.10;;
19554;SDS011;9924;50.828;6.440;2022-12-18T00:40:51;25.10;;;11.53;;
19554;SDS011;9924;50.828;6.440;2022-12-18T00:43:36;23.90;;;10.77;;
19554;SDS011;9924;50.828;6.440;2022-12-18T00:46:21;22.27;;;11.00;;
19554;SDS011;9924;50.828;6.440;2022-12-18T00:49:05;26.00;;;11.23;;
19554;SDS011;9924;50.828;6.440;2022-12-18T00:51:50;24.37;;;11.00;;
19554;SDS011;9924;50.828;6.440;2022-12-18T00:54:35;25.53;;;12.00;;
19554;SDS011;9924;50.828;6.440;2022-12-18T00:57:19;26.43;;;11.33;;
19554;SDS011;9924;50.828;6.440;2022-12-18T01:00:04;24.03;;;10.67;;
19554;SDS011;9924;50.828;6.440;2022-12-18T01:02:50;25.43;;;9.97;;
19554;SDS011;9924;50.828;6.440;2022-12-18T01:05:38;24.70;;;9.87;;
19554;SDS011;9924;50.828;6.440;2022-12-18T01:08:23;27.10;;;10.83;;
19554;SDS011;9924;50.828;6.440;2022-12-18T01:11:09;24.13;;;10.83;;
19554;SDS011;9924;50.828;6.440;2022-12-18T01:13:55;24.83;;;10.97;;
19554;SDS011;9924;50.828;6.440;2022-12-18T01:16:39;21.50;;;10.80;;
19554;SDS011;9924;50.828;6.440;2022-12-18T01:19:23;20.97;;;10.70;;
19554;SDS011;9924;50.828;6.440;2022-12-18T01:22:08;22.20;;;10.83;;
19554;SDS011;9924;50.828;6.440;2022-12-18T01:24:52;27.93;;;10.97;;
19554;SDS011;9924;50.828;6.440;2022-12-18T01:27:37;19.50;;;9.93;;
19554;SDS011;9924;50.828;6.440;2022-12-18T01:30:21;25.80;;;11.70;;
19554;SDS011;9924;50.828;6.440;2022-12-18T01:33:05;20.53;;;10.70;;
19554;SDS011;9924;50.828;6.440;2022-12-18T01:35:50;25.43;;;11.20;;
19554;SDS011;9924;50.828;6.440;2022-12-18T01:38:34;18.97;;;9.27;;
19554;SDS011;9924;50.828;6.440;2022-12-18T01:41:21;20.30;;;9.93;;
19554;SDS011;9924;50.828;6.440;2022-12-18T01:53:23;18.90;;;9.17;;
19554;SDS011;9924;50.828;6.440;2022-12-18T01:56:08;24.23;;;10.13;;
19554;SDS011;9924;50.828;6.440;2022-12-18T01:59:00;19.53;;;8.87;;
19554;SDS011;9924;50.828;6.440;2022-12-18T02:01:47;23.40;;;9.90;;
19554;SDS011;9924;50.828;6.440;2022-12-18T02:04:31;25.20;;;9.60;;
19554;SDS011;9924;50.828;6.440;2022-12-18T02:19:27;24.77;;;10.37;;
19554;SDS011;9924;50.828;6.440;2022-12-18T02:28:41;20.93;;;10.80;;
19554;SDS011;9924;50.828;6.440;2022-12-18T02:31:30;21.50;;;9.97;;
19554;SDS011;9924;50.828;6.440;2022-12-18T02:34:23;20.17;;;10.03;;
19554;SDS011;9924;50.828;6.440;2022-12-18T02:37:13;20.37;;;10.00;;
19554;SDS011;9924;50.828;6.440;2022-12-18T02:40:01;25.80;;;10.33;;
19554;SDS011;9924;50.828;6.440;2022-12-18T02:42:48;20.80;;;9.97;;
19554;SDS011;9924;50.828;6.440;2022-12-18T02:45:33;20.23;;;9.70;;
19554;SDS011;9924;50.828;6.440;2022-12-18T02:48:17;25.73;;;10.43;;
19554;SDS011;9924;50.828;6.440;2022-12-18T02:54:06;23.03;;;10.70;;
19554;SDS011;9924;50.828;6.440;2022-12-18T02:57:00;22.13;;;9.90;;
19554;SDS011;9924;50.828;6.440;2022-12-18T03:03:31;23.53;;;10.73;;
19554;SDS011;9924;50.828;6.440;2022-12-18T03:06:01;23.80;;;11.27;;
19554;SDS011;9924;50.828;6.440;2022-12-18T03:08:48;24.00;;;9.77;;
19554;SDS011;9924;50.828;6.440;2022-12-18T03:11:40;23.87;;;10.40;;
19554;SDS011;9924;50.828;6.440;2022-12-18T03:14:48;20.00;;;9.50;;
19554;SDS011;9924;50.828;6.440;2022-12-18T03:18:08;24.20;;;10.23;;
19554;SDS011;9924;50.828;6.440;2022-12-18T03:20:58;21.00;;;10.00;;
19554;SDS011;9924;50.828;6.440;2022-12-18T03:23:48;23.87;;;10.97;;
19554;SDS011;9924;50.828;6.440;2022-12-18T03:26:34;23.57;;;9.40;;
19554;SDS011;9924;50.828;6.440;2022-12-18T03:29:33;25.60;;;10.53;;
19554;SDS011;9924;50.828;6.440;2022-12-18T03:32:27;24.10;;;10.77;;
19554;SDS011;9924;50.828;6.440;2022-12-18T03:35:19;25.00;;;10.87;;
19554;SDS011;9924;50.828;6.440;2022-12-18T03:38:08;21.47;;;10.73;;
19554;SDS011;9924;50.828;6.440;2022-12-18T03:43:55;22.43;;;10.73;;
19554;SDS011;9924;50.828;6.440;2022-12-18T03:53:37;22.87;;;10.47;;
19554;SDS011;9924;50.828;6.440;2022-12-18T03:56:37;23.17;;;10.87;;
19554;SDS011;9924;50.828;6.440;2022-12-18T03:59:24;23.30;;;9.97;;
19554;SDS011;9924;50.828;6.440;2022-12-18T04:02:11;22.73;;;10.20;;
19554;SDS011;9924;50.828;6.440;2022-12-18T04:04:57;25.30;;;10.33;;
19554;SDS011;9924;50.828;6.440;2022-12-18T04:07:45;22.10;;;10.40;;
19554;SDS011;9924;50.828;6.440;2022-12-18T04:10:31;23.07;;;10.70;;
19554;SDS011;9924;50.828;6.440;2022-12-18T04:13:22;21.53;;;10.47;;
19554;SDS011;9924;50.828;6.440;2022-12-18T04:16:07;21.47;;;10.33;;
19554;SDS011;9924;50.828;6.440;2022-12-18T04:18:53;21.50;;;10.07;;
19554;SDS011;9924;50.828;6.440;2022-12-18T04:21:37;25.97;;;11.73;;
19554;SDS011;9924;50.828;6.440;2022-12-18T04:24:22;24.27;;;11.10;;
19554;SDS011;9924;50.828;6.440;2022-12-18T04:27:06;24.00;;;11.33;;
19554;SDS011;9924;50.828;6.440;2022-12-18T04:29:51;22.00;;;10.73;;
19554;SDS011;9924;50.828;6.440;2022-12-18T04:32:36;25.37;;;11.03;;
19554;SDS011;9924;50.828;6.440;2022-12-18T04:35:20;26.20;;;10.97;;
19554;SDS011;9924;50.828;6.440;2022-12-18T04:38:05;28.47;;;12.60;;
19554;SDS011;9924;50.828;6.440;2022-12-18T04:40:52;23.80;;;10.60;;
19554;SDS011;9924;50.828;6.440;2022-12-18T04:43:36;28.33;;;12.13;;
19554;SDS011;9924;50.828;6.440;2022-12-18T04:46:21;22.70;;;11.13;;
19554;SDS011;9924;50.828;6.440;2022-12-18T04:49:05;24.43;;;12.17;;
19554;SDS011;9924;50.828;6.440;2022-12-18T04:51:49;31.73;;;13.03;;
19554;SDS011;9924;50.828;6.440;2022-12-18T04:54:34;26.57;;;11.97;;
19554;SDS011;9924;50.828;6.440;2022-12-18T04:57:18;25.23;;;12.67;;
19554;SDS011;9924;50.828;6.440;2022-12-18T05:00:03;27.97;;;12.30;;
19554;SDS011;9924;50.828;6.440;2022-12-18T05:02:49;26.33;;;11.37;;
19554;SDS011;9924;50.828;6.440;2022-12-18T05:05:34;25.03;;;11.63;;
19554;SDS011;9924;50.828;6.440;2022-12-18T05:08:19;27.57;;;11.47;;
19554;SDS011;9924;50.828;6.440;2022-12-18T05:11:05;27.97;;;11.33;;
19554;SDS011;9924;50.828;6.440;2022-12-18T05:13:51;25.83;;;12.07;;
19554;SDS011;9924;50.828;6.440;2022-12-18T05:16:36;25.43;;;11.57;;
19554;SDS011;9924;50.828;6.440;2022-12-18T05:19:20;25.87;;;11.00;;
19554;SDS011;9924;50.828;6.440;2022-12-18T05:22:07;21.50;;;10.80;;
19554;SDS011;9924;50.828;6.440;2022-12-18T05:24:53;24.17;;;10.40;;
19554;SDS011;9924;50.828;6.440;2022-12-18T05:27:37;26.83;;;11.30;;
19554;SDS011;9924;50.828;6.440;2022-12-18T05:30:22;25.43;;;11.37;;
19554;SDS011;9924;50.828;6.440;2022-12-18T05:33:06;24.13;;;11.57;;
19554;SDS011;9924;50.828;6.440;2022-12-18T05:35:51;23.27;;;11.27;;
19554;SDS011;9924;50.828;6.440;2022-12-18T05:38:37;25.17;;;11.93;;
19554;SDS011;9924;50.828;6.440;2022-12-18T05:41:23;26.70;;;11.73;;
19554;SDS011;9924;50.828;6.440;2022-12-18T05:44:07;23.93;;;11.63;;
19554;SDS011;9924;50.828;6.440;2022-12-18T05:46:51;22.93;;;10.87;;
19554;SDS011;9924;50.828;6.440;2022-12-18T05:49:36;25.17;;;11.57;;
19554;SDS011;9924;50.828;6.440;2022-12-18T05:52:20;23.83;;;10.83;;
19554;SDS011;9924;50.828;6.440;2022-12-18T05:55:04;22.87;;;11.10;;
19554;SDS011;9924;50.828;6.440;2022-12-18T05:57:49;25.47;;;11.57;;
19554;SDS011;9924;50.828;6.440;2022-12-18T06:00:34;24.90;;;11.83;;
19554;SDS011;9924;50.828;6.440;2022-12-18T06:03:23;29.60;;;11.97;;
19554;SDS011;9924;50.828;6.440;2022-12-18T06:06:14;25.10;;;12.27;;
19554;SDS011;9924;50.828;6.440;2022-12-18T06:09:03;28.67;;;12.77;;
19554;SDS011;9924;50.828;6.440;2022-12-18T06:11:52;26.60;;;11.73;;
19554;SDS011;9924;50.828;6.440;2022-12-18T06:14:36;29.80;;;12.67;;
19554;SDS011;9924;50.828;6.440;2022-12-18T06:17:21;23.03;;;11.00;;
19554;SDS011;9924;50.828;6.440;2022-12-18T06:20:05;20.97;;;11.10;;
19554;SDS011;9924;50.828;6.440;2022-12-18T06:22:50;24.83;;;11.83;;
19554;SDS011;9924;50.828;6.440;2022-12-18T06:25:37;24.17;;;10.70;;
19554;SDS011;9924;50.828;6.440;2022-12-18T06:28:23;27.20;;;11.73;;
19554;SDS011;9924;50.828;6.440;2022-12-18T06:31:08;25.97;;;11.60;;
19554;SDS011;9924;50.828;6.440;2022-12-18T06:33:53;30.10;;;12.97;;
19554;SDS011;9924;50.828;6.440;2022-12-18T06:36:37;24.43;;;10.50;;
19554;SDS011;9924;50.828;6.440;2022-12-18T06:39:22;23.07;;;11.03;;
19554;SDS011;9924;50.828;6.440;2022-12-18T06:42:07;25.50;;;11.83;;
19554;SDS011;9924;50.828;6.440;2022-12-18T06:44:51;25.87;;;12.17;;
19554;SDS011;9924;50.828;6.440;2022-12-18T06:47:35;24.67;;;11.67;;
19554;SDS011;9924;50.828;6.440;2022-12-18T06:50:20;23.97;;;11.40;;
19554;SDS011;9924;50.828;6.440;2022-12-18T06:53:04;31.60;;;12.43;;
19554;SDS011;9924;50.828;6.440;2022-12-18T06:55:49;26.47;;;11.47;;
19554;SDS011;9924;50.828;6.440;2022-12-18T06:58:34;25.27;;;11.47;;
19554;SDS011;9924;50.828;6.440;2022-12-18T07:01:18;27.37;;;12.07;;
19554;SDS011;9924;50.828;6.440;2022-12-18T07:04:03;29.30;;;12.23;;
19554;SDS011;9924;50.828;6.440;2022-12-18T07:06:47;29.10;;;11.63;;
19554;SDS011;9924;50.828;6.440;2022-12-18T07:09:32;27.70;;;12.13;;
19554;SDS011;9924;50.828;6.440;2022-12-18T07:12:16;28.70;;;11.73;;
19554;SDS011;9924;50.828;6.440;2022-12-18T07:15:01;26.17;;;12.10;;
19554;SDS011;9924;50.828;6.440;2022-12-18T07:17:46;29.63;;;13.20;;
19554;SDS011;9924;50.828;6.440;2022-12-18T07:20:30;29.33;;;12.70;;
19554;SDS011;9924;50.828;6.440;2022-12-18T07:23:14;27.17;;;11.90;;
19554;SDS011;9924;50.828;6.440;2022-12-18T07:26:04;26.47;;;12.57;;
19554;SDS011;9924;50.828;6.440;2022-12-18T07:28:55;28.17;;;12.47;;
19554;SDS011;9924;50.828;6.440;2022-12-18T07:31:40;31.93;;;13.23;;
19554;SDS011;9924;50.828;6.440;2022-12-18T07:34:25;29.57;;;12.83;;
19554;SDS011;9924;50.828;6.440;2022-12-18T07:37:10;29.97;;;12.30;;
19554;SDS011;9924;50.828;6.440;2022-12-18T07:39:54;27.83;;;12.17;;
19554;SDS011;9924;50.828;6.440;2022-12-18T07:42:38;28.43;;;13.97;;
19554;SDS011;9924;50.828;6.440;2022-12-18T07:45:23;26.83;;;12.50;;
19554;SDS011;9924;50.828;6.440;2022-12-18T07:48:07;26.10;;;12.83;;
19554;SDS011;9924;50.828;6.440;2022-12-18T07:50:52;28.33;;;13.03;;
19554;SDS011;9924;50.828;6.440;2022-12-18T07:53:36;31.60;;;14.80;;
19554;SDS011;9924;50.828;6.440;2022-12-18T07:56:21;27.17;;;13.57;;
19554;SDS011;9924;50.828;6.440;2022-12-18T07:59:06;25.93;;;12.30;;
19554;SDS011;9924;50.828;6.440;2022-12-18T08:01:50;26.07;;;13.20;;
19554;SDS011;9924;50.828;6.440;2022-12-18T08:04:35;24.37;;;12.47;;
19554;SDS011;9924;50.828;6.440;2022-12-18T08:07:19;29.13;;;13.60;;
19554;SDS011;9924;50.828;6.440;2022-12-18T08:10:03;28.60;;;13.80;;
19554;SDS011;9924;50.828;6.440;2022-12-18T08:12:49;35.60;;;13.73;;
19554;SDS011;9924;50.828;6.440;2022-12-18T08:15:34;29.27;;;13.33;;
19554;SDS011;9924;50.828;6.440;2022-12-18T08:18:19;27.80;;;12.73;;
19554;SDS011;9924;50.828;6.440;2022-12-18T08:21:10;27.27;;;13.80;;
19554;SDS011;9924;50.828;6.440;2022-12-18T08:23:58;30.10;;;15.03;;
19554;SDS011;9924;50.828;6.440;2022-12-18T08:26:45;28.20;;;12.43;;
19554;SDS011;9924;50.828;6.440;2022-12-18T08:29:29;27.93;;;13.13;;
19554;SDS011;9924;50.828;6.440;2022-12-18T08:32:15;30.67;;;14.40;;
19554;SDS011;9924;50.828;6.440;2022-12-18T08:34:59;24.73;;;12.37;;
19554;SDS011;9924;50.828;6.440;2022-12-18T08:37:44;25.83;;;12.70;;
19554;SDS011;9924;50.828;6.440;2022-12-18T08:40:29;25.87;;;11.73;;
19554;SDS011;9924;50.828;6.440;2022-12-18T08:43:13;29.73;;;12.77;;
19554;SDS011;9924;50.828;6.440;2022-12-18T08:46:17;25.30;;;12.53;;
19554;SDS011;9924;50.828;6.440;2022-12-18T08:49:02;26.30;;;12.83;;
19554;SDS011;9924;50.828;6.440;2022-12-18T08:51:47;31.47;;;13.87;;
19554;SDS011;9924;50.828;6.440;2022-12-18T08:54:32;23.63;;;12.20;;
19554;SDS011;9924;50.828;6.440;2022-12-18T08:57:17;26.43;;;13.40;;
19554;SDS011;9924;50.828;6.440;2022-12-18T09:00:02;24.60;;;11.67;;
19554;SDS011;9924;50.828;6.440;2022-12-18T09:02:47;24.30;;;12.53;;
19554;SDS011;9924;50.828;6.440;2022-12-18T09:05:32;24.00;;;12.33;;
19554;SDS011;9924;50.828;6.440;2022-12-18T09:08:16;24.97;;;13.53;;
19554;SDS011;9924;50.828;6.440;2022-12-18T09:11:01;23.47;;;12.20;;
19554;SDS011;9924;50.828;6.440;2022-12-18T09:13:46;30.20;;;13.27;;
19554;SDS011;9924;50.828;6.440;2022-12-18T09:16:31;24.10;;;12.27;;
19554;SDS011;9924;50.828;6.440;2022-12-18T09:19:18;30.70;;;13.07;;
19554;SDS011;9924;50.828;6.440;2022-12-18T09:22:02;27.20;;;13.17;;
19554;SDS011;9924;50.828;6.440;2022-12-18T09:24:46;25.47;;;13.10;;
19554;SDS011;9924;50.828;6.440;2022-12-18T09:27:32;24.13;;;12.53;;
19554;SDS011;9924;50.828;6.440;2022-12-18T09:30:17;27.23;;;13.27;;
19554;SDS011;9924;50.828;6.440;2022-12-18T09:33:02;24.80;;;12.70;;
19554;SDS011;9924;50.828;6.440;2022-12-18T09:35:46;23.90;;;12.57;;
19554;SDS011;9924;50.828;6.440;2022-12-18T09:38:30;27.43;;;12.47;;
19554;SDS011;9924;50.828;6.440;2022-12-18T09:44:18;24.63;;;11.23;;
19554;SDS011;9924;50.828;6.440;2022-12-18T09:50:30;21.17;;;12.03;;
19554;SDS011;9924;50.828;6.440;2022-12-18T09:53:19;26.23;;;13.00;;
19554;SDS011;9924;50.828;6.440;2022-12-18T09:56:10;27.60;;;13.47;;
19554;SDS011;9924;50.828;6.440;2022-12-18T09:59:01;27.87;;;13.10;;
19554;SDS011;9924;50.828;6.440;2022-12-18T10:01:46;23.50;;;12.27;;
19554;SDS011;9924;50.828;6.440;2022-12-18T10:04:31;22.93;;;11.70;;
19554;SDS011;9924;50.828;6.440;2022-12-18T10:07:21;24.30;;;11.77;;
19554;SDS011;9924;50.828;6.440;2022-12-18T10:10:22;22.77;;;11.67;;
19554;SDS011;9924;50.828;6.440;2022-12-18T10:16:32;21.13;;;10.93;;
19554;SDS011;9924;50.828;6.440;2022-12-18T10:19:39;22.67;;;11.73;;
19554;SDS011;9924;50.828;6.440;2022-12-18T10:22:48;22.17;;;11.70;;
19554;SDS011;9924;50.828;6.440;2022-12-18T10:28:49;20.40;;;11.20;;
19554;SDS011;9924;50.828;6.440;2022-12-18T10:31:36;24.23;;;11.93;;
19554;SDS011;9924;50.828;6.440;2022-12-18T10:34:20;26.47;;;12.93;;
19554;SDS011;9924;50.828;6.440;2022-12-18T10:37:06;22.33;;;11.97;;
19554;SDS011;9924;50.828;6.440;2022-12-18T10:40:10;25.83;;;12.20;;
19554;SDS011;9924;50.828;6.440;2022-12-18T10:43:03;22.10;;;11.57;;
19554;SDS011;9924;50.828;6.440;2022-12-18T10:46:00;25.30;;;11.63;;
19554;SDS011;9924;50.828;6.440;2022-12-18T10:48:49;24.13;;;12.80;;
19554;SDS011;9924;50.828;6.440;2022-12-18T10:51:36;24.60;;;12.67;;
19554;SDS011;9924;50.828;6.440;2022-12-18T10:54:21;23.47;;;12.93;;
19554;SDS011;9924;50.828;6.440;2022-12-18T10:57:20;26.73;;;12.70;;
19554;SDS011;9924;50.828;6.440;2022-12-18T11:00:32;24.17;;;11.87;;
19554;SDS011;9924;50.828;6.440;2022-12-18T11:06:25;25.47;;;11.70;;
19554;SDS011;9924;50.828;6.440;2022-12-18T11:09:19;22.63;;;11.73;;
19554;SDS011;9924;50.828;6.440;2022-12-18T11:12:14;23.50;;;13.07;;
19554;SDS011;9924;50.828;6.440;2022-12-18T11:15:00;27.20;;;12.33;;
19554;SDS011;9924;50.828;6.440;2022-12-18T11:17:45;24.10;;;13.30;;
19554;SDS011;9924;50.828;6.440;2022-12-18T11:20:36;25.07;;;12.50;;
19554;SDS011;9924;50.828;6.440;2022-12-18T11:23:21;27.03;;;12.83;;
19554;SDS011;9924;50.828;6.440;2022-12-18T11:26:07;22.97;;;12.23;;
19554;SDS011;9924;50.828;6.440;2022-12-18T11:28:52;22.97;;;12.23;;
19554;SDS011;9924;50.828;6.440;2022-12-18T11:33:00;23.43;;;12.47;;
19554;SDS011;9924;50.828;6.440;2022-12-18T11:35:15;24.87;;;12.80;;
19554;SDS011;9924;50.828;6.440;2022-12-18T11:38:46;25.53;;;12.77;;
19554;SDS011;9924;50.828;6.440;2022-12-18T11:44:38;24.40;;;12.70;;
19554;SDS011;9924;50.828;6.440;2022-12-18T11:50:52;29.37;;;12.90;;
19554;SDS011;9924;50.828;6.440;2022-12-18T11:53:40;26.33;;;13.10;;
19554;SDS011;9924;50.828;6.440;2022-12-18T12:09:02;25.63;;;13.67;;
19554;SDS011;9924;50.828;6.440;2022-12-18T12:38:28;28.50;;;14.13;;
19554;SDS011;9924;50.828;6.440;2022-12-18T12:41:27;29.77;;;15.07;;
19554;SDS011;9924;50.828;6.440;2022-12-18T12:44:35;28.30;;;13.77;;
19554;SDS011;9924;50.828;6.440;2022-12-18T12:47:26;27.73;;;13.10;;
19554;SDS011;9924;50.828;6.440;2022-12-18T12:50:16;22.87;;;12.17;;
19554;SDS011;9924;50.828;6.440;2022-12-18T12:53:06;28.10;;;14.10;;
19554;SDS011;9924;50.828;6.440;2022-12-18T12:55:52;28.33;;;14.80;;
19554;SDS011;9924;50.828;6.440;2022-12-18T13:01:36;26.83;;;13.97;;
19554;SDS011;9924;50.828;6.440;2022-12-18T13:04:41;32.27;;;13.50;;
19554;SDS011;9924;50.828;6.440;2022-12-18T13:07:37;30.07;;;14.23;;
19554;SDS011;9924;50.828;6.440;2022-12-18T13:13:17;27.93;;;14.27;;
19554;SDS011;9924;50.828;6.440;2022-12-18T13:16:04;29.20;;;14.43;;
19554;SDS011;9924;50.828;6.440;2022-12-18T13:18:50;28.73;;;14.33;;
19554;SDS011;9924;50.828;6.440;2022-12-18T13:21:36;27.97;;;14.97;;
19554;SDS011;9924;50.828;6.440;2022-12-18T13:24:28;29.40;;;14.43;;
19554;SDS011;9924;50.828;6.440;2022-12-18T13:44:48;25.83;;;14.20;;
19554;SDS011;9924;50.828;6.440;2022-12-18T13:47:33;28.77;;;12.67;;
19554;SDS011;9924;50.828;6.440;2022-12-18T13:50:30;27.50;;;13.50;;
19554;SDS011;9924;50.828;6.440;2022-12-18T13:53:21;23.27;;;12.97;;
19554;SDS011;9924;50.828;6.440;2022-12-18T13:56:29;26.77;;;14.47;;
19554;SDS011;9924;50.828;6.440;2022-12-18T13:59:23;28.27;;;13.93;;
19554;SDS011;9924;50.828;6.440;2022-12-18T14:02:27;32.03;;;15.57;;
19554;SDS011;9924;50.828;6.440;2022-12-18T14:05:25;28.17;;;13.27;;
19554;SDS011;9924;50.828;6.440;2022-12-18T14:08:17;33.03;;;15.37;;
19554;SDS011;9924;50.828;6.440;2022-12-18T14:11:03;30.40;;;14.50;;
19554;SDS011;9924;50.828;6.440;2022-12-18T14:13:50;29.40;;;14.60;;
19554;SDS011;9924;50.828;6.440;2022-12-18T14:16:36;30.10;;;14.80;;
19554;SDS011;9924;50.828;6.440;2022-12-18T14:19:20;30.57;;;15.50;;
19554;SDS011;9924;50.828;6.440;2022-12-18T14:22:09;31.57;;;15.77;;
19554;SDS011;9924;50.828;6.440;2022-12-18T14:30:57;31.37;;;16.67;;
19554;SDS011;9924;50.828;6.440;2022-12-18T14:33:41;27.90;;;14.73;;
19554;SDS011;9924;50.828;6.440;2022-12-18T14:36:28;32.63;;;14.90;;
19554;SDS011;9924;50.828;6.440;2022-12-18T14:39:16;30.83;;;14.37;;
19554;SDS011;9924;50.828;6.440;2022-12-18T14:42:01;30.20;;;14.77;;
19554;SDS011;9924;50.828;6.440;2022-12-18T14:44:45;30.73;;;14.23;;
19554;SDS011;9924;50.828;6.440;2022-12-18T14:47:30;30.67;;;15.03;;
19554;SDS011;9924;50.828;6.440;2022-12-18T14:50:14;31.40;;;15.80;;
19554;SDS011;9924;50.828;6.440;2022-12-18T14:52:58;28.10;;;14.87;;
19554;SDS011;9924;50.828;6.440;2022-12-18T14:55:45;32.83;;;15.67;;
19554;SDS011;9924;50.828;6.440;2022-12-18T14:58:31;31.70;;;15.37;;
19554;SDS011;9924;50.828;6.440;2022-12-18T15:01:19;28.77;;;15.17;;
19554;SDS011;9924;50.828;6.440;2022-12-18T15:04:22;27.97;;;14.60;;
19554;SDS011;9924;50.828;6.440;2022-12-18T15:07:22;30.40;;;14.13;;
19554;SDS011;9924;50.828;6.440;2022-12-18T15:10:15;31.17;;;14.53;;
19554;SDS011;9924;50.828;6.440;2022-12-18T15:15:47;35.63;;;16.97;;
19554;SDS011;9924;50.828;6.440;2022-12-18T15:18:33;36.23;;;16.97;;
19554;SDS011;9924;50.828;6.440;2022-12-18T15:21:24;35.03;;;16.90;;
19554;SDS011;9924;50.828;6.440;2022-12-18T15:24:16;33.97;;;16.60;;
19554;SDS011;9924;50.828;6.440;2022-12-18T15:27:03;33.23;;;16.83;;
19554;SDS011;9924;50.828;6.440;2022-12-18T15:33:16;35.10;;;16.10;;
19554;SDS011;9924;50.828;6.440;2022-12-18T15:36:18;30.03;;;15.33;;
19554;SDS011;9924;50.828;6.440;2022-12-18T15:39:03;33.87;;;15.70;;
19554;SDS011;9924;50.828;6.440;2022-12-18T15:41:48;35.10;;;16.07;;
19554;SDS011;9924;50.828;6.440;2022-12-18T15:44:53;34.73;;;16.40;;
19554;SDS011;9924;50.828;6.440;2022-12-18T15:47:37;31.97;;;13.87;;
19554;SDS011;9924;50.828;6.440;2022-12-18T15:50:22;33.17;;;14.70;;
19554;SDS011;9924;50.828;6.440;2022-12-18T15:53:07;31.40;;;15.13;;
19554;SDS011;9924;50.828;6.440;2022-12-18T15:55:52;30.03;;;15.43;;
19554;SDS011;9924;50.828;6.440;2022-12-18T15:58:56;29.40;;;15.00;;
19554;SDS011;9924;50.828;6.440;2022-12-18T16:01:41;31.73;;;15.13;;
19554;SDS011;9924;50.828;6.440;2022-12-18T16:04:27;36.07;;;16.50;;
19554;SDS011;9924;50.828;6.440;2022-12-18T16:07:11;32.77;;;17.47;;
19554;SDS011;9924;50.828;6.440;2022-12-18T16:09:56;31.53;;;15.47;;
19554;SDS011;9924;50.828;6.440;2022-12-18T16:12:41;30.87;;;16.20;;
19554;SDS011;9924;50.828;6.440;2022-12-18T16:15:26;30.23;;;15.77;;
19554;SDS011;9924;50.828;6.440;2022-12-18T16:18:10;34.47;;;16.23;;
19554;SDS011;9924;50.828;6.440;2022-12-18T16:20:55;29.70;;;14.27;;
19554;SDS011;9924;50.828;6.440;2022-12-18T16:23:42;30.03;;;13.97;;
19554;SDS011;9924;50.828;6.440;2022-12-18T16:26:26;34.30;;;16.23;;
19554;SDS011;9924;50.828;6.440;2022-12-18T16:29:10;37.70;;;17.03;;
19554;SDS011;9924;50.828;6.440;2022-12-18T16:31:59;33.60;;;16.10;;
19554;SDS011;9924;50.828;6.440;2022-12-18T16:34:45;32.20;;;15.73;;
19554;SDS011;9924;50.828;6.440;2022-12-18T16:37:30;35.90;;;16.27;;
19554;SDS011;9924;50.828;6.440;2022-12-18T16:40:15;34.50;;;16.77;;
19554;SDS011;9924;50.828;6.440;2022-12-18T16:43:00;31.00;;;15.13;;
19554;SDS011;9924;50.828;6.440;2022-12-18T16:45:44;40.97;;;16.90;;
19554;SDS011;9924;50.828;6.440;2022-12-18T16:48:29;36.23;;;16.67;;
19554;SDS011;9924;50.828;6.440;2022-12-18T16:51:13;31.67;;;16.23;;
19554;SDS011;9924;50.828;6.440;2022-12-18T16:53:58;33.47;;;16.73;;
19554;SDS011;9924;50.828;6.440;2022-12-18T16:56:43;34.50;;;16.77;;
19554;SDS011;9924;50.828;6.440;2022-12-18T16:59:30;35.93;;;17.47;;
19554;SDS011;9924;50.828;6.440;2022-12-18T17:02:16;31.43;;;16.37;;
19554;SDS011;9924;50.828;6.440;2022-12-18T17:05:05;35.07;;;16.10;;
19554;SDS011;9924;50.828;6.440;2022-12-18T17:07:53;37.67;;;17.60;;
19554;SDS011;9924;50.828;6.440;2022-12-18T17:10:37;36.33;;;16.93;;
19554;SDS011;9924;50.828;6.440;2022-12-18T17:13:22;36.97;;;16.93;;
19554;SDS011;9924;50.828;6.440;2022-12-18T17:16:09;35.70;;;16.30;;
19554;SDS011;9924;50.828;6.440;2022-12-18T17:18:54;36.43;;;17.07;;
19554;SDS011;9924;50.828;6.440;2022-12-18T17:21:38;35.73;;;16.57;;
19554;SDS011;9924;50.828;6.440;2022-12-18T17:24:23;36.47;;;17.30;;
19554;SDS011;9924;50.828;6.440;2022-12-18T17:27:07;39.20;;;18.10;;
19554;SDS011;9924;50.828;6.440;2022-12-18T17:29:54;42.20;;;17.50;;
19554;SDS011;9924;50.828;6.440;2022-12-18T17:32:39;37.87;;;17.40;;
19554;SDS011;9924;50.828;6.440;2022-12-18T17:35:23;41.07;;;18.60;;
19554;SDS011;9924;50.828;6.440;2022-12-18T17:38:08;37.23;;;17.80;;
19554;SDS011;9924;50.828;6.440;2022-12-18T17:40:53;37.57;;;17.43;;
19554;SDS011;9924;50.828;6.440;2022-12-18T17:43:37;38.77;;;17.43;;
19554;SDS011;9924;50.828;6.440;2022-12-18T17:46:29;40.77;;;16.97;;
19554;SDS011;9924;50.828;6.440;2022-12-18T17:49:15;37.57;;;17.73;;
19554;SDS011;9924;50.828;6.440;2022-12-18T17:51:59;36.83;;;16.67;;
19554;SDS011;9924;50.828;6.440;2022-12-18T17:54:44;35.43;;;16.97;;
19554;SDS011;9924;50.828;6.440;2022-12-18T17:57:31;37.83;;;17.43;;
19554;SDS011;9924;50.828;6.440;2022-12-18T18:00:15;41.37;;;18.40;;
19554;SDS011;9924;50.828;6.440;2022-12-18T18:03:00;41.07;;;20.13;;
19554;SDS011;9924;50.828;6.440;2022-12-18T18:05:45;34.73;;;17.80;;
19554;SDS011;9924;50.828;6.440;2022-12-18T18:08:30;38.60;;;18.30;;
19554;SDS011;9924;50.828;6.440;2022-12-18T18:11:17;34.17;;;16.30;;
19554;SDS011;9924;50.828;6.440;2022-12-18T18:14:21;37.17;;;16.37;;
19554;SDS011;9924;50.828;6.440;2022-12-18T18:17:06;33.63;;;15.27;;
19554;SDS011;9924;50.828;6.440;2022-12-18T18:19:51;32.50;;;16.00;;
19554;SDS011;9924;50.828;6.440;2022-12-18T18:22:35;32.63;;;15.77;;
19554;SDS011;9924;50.828;6.440;2022-12-18T18:25:20;31.27;;;16.63;;
19554;SDS011;9924;50.828;6.440;2022-12-18T18:28:05;30.87;;;15.70;;
19554;SDS011;9924;50.828;6.440;2022-12-18T18:30:49;36.30;;;16.00;;
19554;SDS011;9924;50.828;6.440;2022-12-18T18:33:35;34.47;;;16.60;;
19554;SDS011;9924;50.828;6.440;2022-12-18T18:36:20;36.03;;;16.43;;
19554;SDS011;9924;50.828;6.440;2022-12-18T18:39:05;34.67;;;16.47;;
19554;SDS011;9924;50.828;6.440;2022-12-18T18:41:50;34.67;;;16.37;;
19554;SDS011;9924;50.828;6.440;2022-12-18T18:44:34;35.90;;;16.97;;
19554;SDS011;9924;50.828;6.440;2022-12-18T18:47:19;38.80;;;17.00;;
19554;SDS011;9924;50.828;6.440;2022-12-18T18:50:04;35.43;;;16.27;;
19554;SDS011;9924;50.828;6.440;2022-12-18T18:52:49;37.03;;;16.87;;
19554;SDS011;9924;50.828;6.440;2022-12-18T18:55:34;33.23;;;15.80;;
19554;SDS011;9924;50.828;6.440;2022-12-18T18:58:18;35.80;;;15.40;;